sensor_id;sensor_type;location;lat;lon;timestamp;P1;durP1;ratioP1;P2;durP2;ratioP2
78875;SDS011;68253;52.506;5.486;2024-03-06T00:00:01;17.70;;;8.35;;
78875;SDS011;68253;52.506;5.486;2024-03-06T00:02:30;17.88;;;8.15;;
78875;SDS011;68253;52.506;5.486;2024-03-06T00:04:56;18.00;;;8.02;;
78875;SDS011;68253;52.506;5.486;2024-03-06T00:07:22;17.83;;;8.23;;
78875;SDS011;68253;52.506;5.486;2024-03-06T00:09:48;16.17;;;7.47;;
78875;SDS011;68253;52.506;5.486;2024-03-06T00:12:14;15.95;;;6.85;;
78875;SDS011;68253;52.506;5.486;2024-03-06T00:14:40;18.25;;;8.15;;
78875;SDS011;68253;52.506;5.486;2024-03-06T00:17:06;18.70;;;8.60;;
78875;SDS011;68253;52.506;5.486;2024-03-06T00:19:33;17.80;;;7.63;;
78875;SDS011;68253;52.506;5.486;2024-03-06T00:21:59;17.77;;;7.75;;
78875;SDS011;68253;52.506;5.486;2024-03-06T00:24:26;18.73;;;8.70;;
78875;SDS011;68253;52.506;5.486;2024-03-06T00:26:52;17.83;;;8.35;;
78875;SDS011;68253;52.506;5.486;2024-03-06T00:29:19;16.75;;;7.80;;
78875;SDS011;68253;52.506;5.486;2024-03-06T00:31:45;18.52;;;8.45;;
78875;SDS011;68253;52.506;5.486;2024-03-06T00:34:12;18.13;;;8.45;;
78875;SDS011;68253;52.506;5.486;2024-03-06T00:36:42;20.48;;;8.43;;
78875;SDS011;68253;52.506;5.486;2024-03-06T00:39:12;18.88;;;8.20;;
78875;SDS011;68253;52.506;5.486;2024-03-06T00:41:40;19.05;;;8.23;;
78875;SDS011;68253;52.506;5.486;2024-03-06T00:44:07;17.88;;;8.45;;
78875;SDS011;68253;52.506;5.486;2024-03-06T00:46:33;17.48;;;7.80;;
78875;SDS011;68253;52.506;5.486;2024-03-06T00:48:59;17.83;;;7.80;;
78875;SDS011;68253;52.506;5.486;2024-03-06T00:51:25;20.15;;;9.10;;
78875;SDS011;68253;52.506;5.486;2024-03-06T00:53:51;19.17;;;8.20;;
78875;SDS011;68253;52.506;5.486;2024-03-06T00:56:17;18.67;;;7.90;;
78875;SDS011;68253;52.506;5.486;2024-03-06T00:58:43;19.08;;;8.80;;
78875;SDS011;68253;52.506;5.486;2024-03-06T01:01:09;19.45;;;8.38;;
78875;SDS011;68253;52.506;5.486;2024-03-06T01:03:37;21.13;;;9.43;;
78875;SDS011;68253;52.506;5.486;2024-03-06T01:06:03;22.25;;;9.40;;
78875;SDS011;68253;52.506;5.486;2024-03-06T01:08:29;22.45;;;9.13;;
78875;SDS011;68253;52.506;5.486;2024-03-06T01:10:57;21.20;;;9.18;;
78875;SDS011;68253;52.506;5.486;2024-03-06T01:13:23;19.42;;;8.68;;
78875;SDS011;68253;52.506;5.486;2024-03-06T01:15:49;20.65;;;9.38;;
78875;SDS011;68253;52.506;5.486;2024-03-06T01:18:15;23.20;;;10.40;;
78875;SDS011;68253;52.506;5.486;2024-03-06T01:20:41;22.13;;;10.00;;
78875;SDS011;68253;52.506;5.486;2024-03-06T01:23:08;21.77;;;9.65;;
78875;SDS011;68253;52.506;5.486;2024-03-06T01:25:34;21.98;;;9.68;;
78875;SDS011;68253;52.506;5.486;2024-03-06T01:28:00;20.75;;;9.00;;
78875;SDS011;68253;52.506;5.486;2024-03-06T01:30:26;20.65;;;9.50;;
78875;SDS011;68253;52.506;5.486;2024-03-06T01:32:52;19.98;;;9.15;;
78875;SDS011;68253;52.506;5.486;2024-03-06T01:35:19;19.73;;;8.70;;
78875;SDS011;68253;52.506;5.486;2024-03-06T01:37:45;18.98;;;8.73;;
78875;SDS011;68253;52.506;5.486;2024-03-06T01:40:14;21.63;;;9.52;;
78875;SDS011;68253;52.506;5.486;2024-03-06T01:42:40;20.75;;;8.93;;
78875;SDS011;68253;52.506;5.486;2024-03-06T01:45:06;20.48;;;9.07;;
78875;SDS011;68253;52.506;5.486;2024-03-06T01:47:33;22.10;;;9.32;;
78875;SDS011;68253;52.506;5.486;2024-03-06T01:49:59;19.55;;;9.27;;
78875;SDS011;68253;52.506;5.486;2024-03-06T01:52:27;18.25;;;8.27;;
78875;SDS011;68253;52.506;5.486;2024-03-06T01:54:53;22.20;;;8.48;;
78875;SDS011;68253;52.506;5.486;2024-03-06T01:57:20;20.27;;;8.63;;
78875;SDS011;68253;52.506;5.486;2024-03-06T01:59:46;19.20;;;8.43;;
78875;SDS011;68253;52.506;5.486;2024-03-06T02:02:13;20.48;;;9.20;;
78875;SDS011;68253;52.506;5.486;2024-03-06T02:04:40;21.42;;;8.75;;
78875;SDS011;68253;52.506;5.486;2024-03-06T02:07:09;20.70;;;9.25;;
78875;SDS011;68253;52.506;5.486;2024-03-06T02:09:36;19.83;;;8.30;;
78875;SDS011;68253;52.506;5.486;2024-03-06T02:12:04;20.45;;;8.98;;
78875;SDS011;68253;52.506;5.486;2024-03-06T02:14:31;20.25;;;9.50;;
78875;SDS011;68253;52.506;5.486;2024-03-06T02:16:57;21.80;;;10.02;;
78875;SDS011;68253;52.506;5.486;2024-03-06T02:19:23;22.63;;;9.95;;
78875;SDS011;68253;52.506;5.486;2024-03-06T02:21:49;19.45;;;9.00;;
78875;SDS011;68253;52.506;5.486;2024-03-06T02:24:15;23.02;;;9.63;;
78875;SDS011;68253;52.506;5.486;2024-03-06T02:26:41;21.35;;;9.27;;
78875;SDS011;68253;52.506;5.486;2024-03-06T02:29:08;22.08;;;9.68;;
78875;SDS011;68253;52.506;5.486;2024-03-06T02:31:36;22.20;;;9.70;;
78875;SDS011;68253;52.506;5.486;2024-03-06T02:34:02;22.40;;;10.48;;
78875;SDS011;68253;52.506;5.486;2024-03-06T02:36:31;22.08;;;10.25;;
78875;SDS011;68253;52.506;5.486;2024-03-06T02:38:57;21.35;;;9.93;;
78875;SDS011;68253;52.506;5.486;2024-03-06T02:41:24;20.17;;;9.02;;
78875;SDS011;68253;52.506;5.486;2024-03-06T02:43:50;22.38;;;9.60;;
78875;SDS011;68253;52.506;5.486;2024-03-06T02:46:16;22.30;;;9.27;;
78875;SDS011;68253;52.506;5.486;2024-03-06T02:48:42;23.08;;;9.68;;
78875;SDS011;68253;52.506;5.486;2024-03-06T02:51:08;19.20;;;9.20;;
78875;SDS011;68253;52.506;5.486;2024-03-06T02:53:34;22.67;;;10.02;;
78875;SDS011;68253;52.506;5.486;2024-03-06T02:56:00;21.42;;;9.70;;
78875;SDS011;68253;52.506;5.486;2024-03-06T02:58:26;21.75;;;10.23;;
78875;SDS011;68253;52.506;5.486;2024-03-06T03:00:57;21.35;;;9.68;;
78875;SDS011;68253;52.506;5.486;2024-03-06T03:03:23;23.42;;;10.40;;
78875;SDS011;68253;52.506;5.486;2024-03-06T03:05:50;24.05;;;11.05;;
78875;SDS011;68253;52.506;5.486;2024-03-06T03:08:16;22.85;;;10.80;;
78875;SDS011;68253;52.506;5.486;2024-03-06T03:10:42;25.15;;;11.43;;
78875;SDS011;68253;52.506;5.486;2024-03-06T03:13:10;23.60;;;11.68;;
78875;SDS011;68253;52.506;5.486;2024-03-06T03:15:36;24.73;;;11.70;;
78875;SDS011;68253;52.506;5.486;2024-03-06T03:18:02;27.52;;;12.93;;
78875;SDS011;68253;52.506;5.486;2024-03-06T03:20:28;25.25;;;12.00;;
78875;SDS011;68253;52.506;5.486;2024-03-06T03:22:54;24.80;;;12.13;;
78875;SDS011;68253;52.506;5.486;2024-03-06T03:25:25;24.88;;;11.38;;
78875;SDS011;68253;52.506;5.486;2024-03-06T03:27:51;25.20;;;11.88;;
78875;SDS011;68253;52.506;5.486;2024-03-06T03:30:17;25.70;;;11.52;;
78875;SDS011;68253;52.506;5.486;2024-03-06T03:35:13;25.95;;;11.70;;
78875;SDS011;68253;52.506;5.486;2024-03-06T03:37:39;27.40;;;11.60;;
78875;SDS011;68253;52.506;5.486;2024-03-06T03:40:06;27.67;;;11.05;;
78875;SDS011;68253;52.506;5.486;2024-03-06T03:42:32;25.33;;;12.40;;
78875;SDS011;68253;52.506;5.486;2024-03-06T03:44:58;26.30;;;11.77;;
78875;SDS011;68253;52.506;5.486;2024-03-06T03:47:25;23.30;;;11.05;;
78875;SDS011;68253;52.506;5.486;2024-03-06T03:49:51;27.50;;;12.07;;
78875;SDS011;68253;52.506;5.486;2024-03-06T03:52:17;25.48;;;11.45;;
78875;SDS011;68253;52.506;5.486;2024-03-06T03:54:43;27.77;;;12.65;;
78875;SDS011;68253;52.506;5.486;2024-03-06T03:57:09;25.55;;;11.48;;
78875;SDS011;68253;52.506;5.486;2024-03-06T03:59:35;27.88;;;12.48;;
78875;SDS011;68253;52.506;5.486;2024-03-06T04:02:02;24.60;;;11.30;;
78875;SDS011;68253;52.506;5.486;2024-03-06T04:04:29;27.60;;;11.77;;
78875;SDS011;68253;52.506;5.486;2024-03-06T04:06:55;28.60;;;13.23;;
78875;SDS011;68253;52.506;5.486;2024-03-06T04:09:25;28.33;;;12.90;;
78875;SDS011;68253;52.506;5.486;2024-03-06T04:11:51;27.27;;;12.35;;
78875;SDS011;68253;52.506;5.486;2024-03-06T04:14:17;28.10;;;13.07;;
78875;SDS011;68253;52.506;5.486;2024-03-06T04:16:47;28.73;;;13.75;;
78875;SDS011;68253;52.506;5.486;2024-03-06T04:19:13;27.30;;;12.35;;
78875;SDS011;68253;52.506;5.486;2024-03-06T04:21:40;28.70;;;12.68;;
78875;SDS011;68253;52.506;5.486;2024-03-06T04:24:07;27.67;;;13.27;;
78875;SDS011;68253;52.506;5.486;2024-03-06T04:26:34;26.92;;;11.90;;
78875;SDS011;68253;52.506;5.486;2024-03-06T04:29:00;25.95;;;11.35;;
78875;SDS011;68253;52.506;5.486;2024-03-06T04:31:26;29.25;;;12.82;;
78875;SDS011;68253;52.506;5.486;2024-03-06T04:33:52;26.90;;;12.55;;
78875;SDS011;68253;52.506;5.486;2024-03-06T04:36:18;27.52;;;12.30;;
78875;SDS011;68253;52.506;5.486;2024-03-06T04:38:44;27.60;;;12.40;;
78875;SDS011;68253;52.506;5.486;2024-03-06T04:41:10;27.85;;;12.73;;
78875;SDS011;68253;52.506;5.486;2024-03-06T04:43:36;29.38;;;12.85;;
78875;SDS011;68253;52.506;5.486;2024-03-06T04:46:03;29.10;;;12.82;;
78875;SDS011;68253;52.506;5.486;2024-03-06T04:48:30;30.90;;;13.07;;
78875;SDS011;68253;52.506;5.486;2024-03-06T04:50:56;28.30;;;12.82;;
78875;SDS011;68253;52.506;5.486;2024-03-06T04:53:22;29.35;;;12.75;;
78875;SDS011;68253;52.506;5.486;2024-03-06T04:55:48;28.90;;;12.88;;
78875;SDS011;68253;52.506;5.486;2024-03-06T04:58:14;29.90;;;13.02;;
78875;SDS011;68253;52.506;5.486;2024-03-06T05:00:40;27.55;;;12.48;;
78875;SDS011;68253;52.506;5.486;2024-03-06T05:03:06;27.85;;;12.52;;
78875;SDS011;68253;52.506;5.486;2024-03-06T05:05:32;30.13;;;12.73;;
78875;SDS011;68253;52.506;5.486;2024-03-06T05:07:59;27.33;;;13.27;;
78875;SDS011;68253;52.506;5.486;2024-03-06T05:10:25;27.77;;;12.32;;
78875;SDS011;68253;52.506;5.486;2024-03-06T05:12:52;27.40;;;11.57;;
78875;SDS011;68253;52.506;5.486;2024-03-06T05:15:19;28.45;;;12.20;;
78875;SDS011;68253;52.506;5.486;2024-03-06T05:17:45;28.50;;;12.77;;
78875;SDS011;68253;52.506;5.486;2024-03-06T05:20:11;23.92;;;10.57;;
78875;SDS011;68253;52.506;5.486;2024-03-06T05:22:37;26.83;;;11.85;;
78875;SDS011;68253;52.506;5.486;2024-03-06T05:25:04;25.05;;;10.95;;
78875;SDS011;68253;52.506;5.486;2024-03-06T05:27:31;26.15;;;11.20;;
78875;SDS011;68253;52.506;5.486;2024-03-06T05:29:57;25.55;;;11.23;;
78875;SDS011;68253;52.506;5.486;2024-03-06T05:32:23;26.38;;;10.63;;
78875;SDS011;68253;52.506;5.486;2024-03-06T05:34:49;25.85;;;12.23;;
78875;SDS011;68253;52.506;5.486;2024-03-06T05:37:15;28.00;;;11.85;;
78875;SDS011;68253;52.506;5.486;2024-03-06T05:39:41;26.33;;;11.95;;
78875;SDS011;68253;52.506;5.486;2024-03-06T05:42:08;25.15;;;11.38;;
78875;SDS011;68253;52.506;5.486;2024-03-06T05:44:34;25.05;;;11.27;;
78875;SDS011;68253;52.506;5.486;2024-03-06T05:47:00;22.70;;;10.95;;
78875;SDS011;68253;52.506;5.486;2024-03-06T05:49:27;25.48;;;11.20;;
78875;SDS011;68253;52.506;5.486;2024-03-06T05:51:54;25.70;;;11.95;;
78875;SDS011;68253;52.506;5.486;2024-03-06T05:54:20;25.30;;;11.88;;
78875;SDS011;68253;52.506;5.486;2024-03-06T05:56:48;26.98;;;11.05;;
78875;SDS011;68253;52.506;5.486;2024-03-06T05:59:15;27.55;;;11.88;;
78875;SDS011;68253;52.506;5.486;2024-03-06T06:01:41;25.77;;;11.43;;
78875;SDS011;68253;52.506;5.486;2024-03-06T06:04:08;25.98;;;10.95;;
78875;SDS011;68253;52.506;5.486;2024-03-06T06:06:37;24.52;;;11.43;;
78875;SDS011;68253;52.506;5.486;2024-03-06T06:09:04;26.25;;;11.52;;
78875;SDS011;68253;52.506;5.486;2024-03-06T06:11:38;25.65;;;11.38;;
78875;SDS011;68253;52.506;5.486;2024-03-06T06:14:04;28.95;;;12.35;;
78875;SDS011;68253;52.506;5.486;2024-03-06T06:16:35;26.52;;;12.38;;
78875;SDS011;68253;52.506;5.486;2024-03-06T06:19:02;29.55;;;11.88;;
78875;SDS011;68253;52.506;5.486;2024-03-06T06:21:29;28.85;;;12.40;;
78875;SDS011;68253;52.506;5.486;2024-03-06T06:23:56;28.08;;;12.13;;
78875;SDS011;68253;52.506;5.486;2024-03-06T06:26:22;29.25;;;13.10;;
78875;SDS011;68253;52.506;5.486;2024-03-06T06:28:48;30.33;;;12.93;;
78875;SDS011;68253;52.506;5.486;2024-03-06T06:31:14;30.55;;;13.23;;
78875;SDS011;68253;52.506;5.486;2024-03-06T06:33:40;29.50;;;13.40;;
78875;SDS011;68253;52.506;5.486;2024-03-06T06:36:07;28.60;;;12.75;;
78875;SDS011;68253;52.506;5.486;2024-03-06T06:38:33;29.38;;;12.13;;
78875;SDS011;68253;52.506;5.486;2024-03-06T06:40:59;29.40;;;13.35;;
78875;SDS011;68253;52.506;5.486;2024-03-06T06:43:25;28.63;;;12.63;;
78875;SDS011;68253;52.506;5.486;2024-03-06T06:45:52;28.58;;;12.43;;
78875;SDS011;68253;52.506;5.486;2024-03-06T06:48:18;28.30;;;12.88;;
78875;SDS011;68253;52.506;5.486;2024-03-06T06:50:44;32.42;;;14.93;;
78875;SDS011;68253;52.506;5.486;2024-03-06T06:53:13;28.38;;;12.60;;
78875;SDS011;68253;52.506;5.486;2024-03-06T06:55:39;28.40;;;12.85;;
78875;SDS011;68253;52.506;5.486;2024-03-06T06:58:05;23.17;;;11.20;;
78875;SDS011;68253;52.506;5.486;2024-03-06T07:00:32;26.40;;;12.43;;
78875;SDS011;68253;52.506;5.486;2024-03-06T07:02:58;42.35;;;17.77;;
78875;SDS011;68253;52.506;5.486;2024-03-06T07:05:25;31.15;;;14.90;;
78875;SDS011;68253;52.506;5.486;2024-03-06T07:07:52;33.35;;;15.57;;
78875;SDS011;68253;52.506;5.486;2024-03-06T07:10:18;34.17;;;15.23;;
78875;SDS011;68253;52.506;5.486;2024-03-06T07:12:44;26.88;;;13.65;;
78875;SDS011;68253;52.506;5.486;2024-03-06T07:15:11;69.03;;;18.67;;
78875;SDS011;68253;52.506;5.486;2024-03-06T07:17:38;23.95;;;12.32;;
78875;SDS011;68253;52.506;5.486;2024-03-06T07:20:04;36.45;;;13.77;;
78875;SDS011;68253;52.506;5.486;2024-03-06T07:22:31;62.42;;;16.40;;
78875;SDS011;68253;52.506;5.486;2024-03-06T07:25:00;62.55;;;18.98;;
78875;SDS011;68253;52.506;5.486;2024-03-06T07:27:27;56.42;;;16.13;;
78875;SDS011;68253;52.506;5.486;2024-03-06T07:29:53;55.10;;;15.68;;
78875;SDS011;68253;52.506;5.486;2024-03-06T07:32:19;33.03;;;14.05;;
78875;SDS011;68253;52.506;5.486;2024-03-06T07:34:46;104.38;;;17.77;;
78875;SDS011;68253;52.506;5.486;2024-03-06T07:37:12;25.13;;;12.23;;
78875;SDS011;68253;52.506;5.486;2024-03-06T07:39:40;50.75;;;15.68;;
78875;SDS011;68253;52.506;5.486;2024-03-06T07:42:06;29.73;;;11.77;;
78875;SDS011;68253;52.506;5.486;2024-03-06T07:44:32;51.03;;;14.63;;
78875;SDS011;68253;52.506;5.486;2024-03-06T07:47:00;20.48;;;12.02;;
78875;SDS011;68253;52.506;5.486;2024-03-06T07:49:27;65.15;;;15.20;;
78875;SDS011;68253;52.506;5.486;2024-03-06T07:51:53;27.35;;;14.50;;
78875;SDS011;68253;52.506;5.486;2024-03-06T07:54:19;29.48;;;13.27;;
78875;SDS011;68253;52.506;5.486;2024-03-06T07:56:48;26.58;;;13.05;;
78875;SDS011;68253;52.506;5.486;2024-03-06T07:59:14;25.30;;;13.73;;
78875;SDS011;68253;52.506;5.486;2024-03-06T08:01:42;29.98;;;14.32;;
78875;SDS011;68253;52.506;5.486;2024-03-06T08:04:08;33.50;;;14.93;;
78875;SDS011;68253;52.506;5.486;2024-03-06T08:06:34;25.27;;;13.38;;
78875;SDS011;68253;52.506;5.486;2024-03-06T08:09:02;27.40;;;14.80;;
78875;SDS011;68253;52.506;5.486;2024-03-06T08:11:29;22.48;;;11.98;;
78875;SDS011;68253;52.506;5.486;2024-03-06T08:13:58;30.38;;;15.10;;
78875;SDS011;68253;52.506;5.486;2024-03-06T08:16:25;20.77;;;11.77;;
78875;SDS011;68253;52.506;5.486;2024-03-06T08:18:51;18.15;;;9.65;;
78875;SDS011;68253;52.506;5.486;2024-03-06T08:21:17;21.52;;;11.50;;
78875;SDS011;68253;52.506;5.486;2024-03-06T08:23:45;23.98;;;12.85;;
78875;SDS011;68253;52.506;5.486;2024-03-06T08:26:13;23.95;;;11.95;;
78875;SDS011;68253;52.506;5.486;2024-03-06T08:28:39;22.55;;;12.13;;
78875;SDS011;68253;52.506;5.486;2024-03-06T08:31:05;21.80;;;11.60;;
78875;SDS011;68253;52.506;5.486;2024-03-06T08:33:31;24.65;;;11.85;;
78875;SDS011;68253;52.506;5.486;2024-03-06T08:35:57;19.50;;;9.75;;
78875;SDS011;68253;52.506;5.486;2024-03-06T08:38:23;21.83;;;10.52;;
78875;SDS011;68253;52.506;5.486;2024-03-06T08:40:50;23.98;;;12.48;;
78875;SDS011;68253;52.506;5.486;2024-03-06T08:43:16;22.58;;;11.88;;
78875;SDS011;68253;52.506;5.486;2024-03-06T08:45:42;22.85;;;11.50;;
78875;SDS011;68253;52.506;5.486;2024-03-06T08:48:08;28.58;;;15.13;;
78875;SDS011;68253;52.506;5.486;2024-03-06T08:50:35;22.83;;;11.68;;
78875;SDS011;68253;52.506;5.486;2024-03-06T08:53:01;25.67;;;12.52;;
78875;SDS011;68253;52.506;5.486;2024-03-06T08:55:28;24.73;;;12.52;;
78875;SDS011;68253;52.506;5.486;2024-03-06T08:57:54;25.77;;;13.07;;
78875;SDS011;68253;52.506;5.486;2024-03-06T09:00:20;23.42;;;12.02;;
78875;SDS011;68253;52.506;5.486;2024-03-06T09:02:46;24.85;;;12.95;;
78875;SDS011;68253;52.506;5.486;2024-03-06T09:05:13;24.85;;;11.55;;
78875;SDS011;68253;52.506;5.486;2024-03-06T09:07:41;35.70;;;18.13;;
78875;SDS011;68253;52.506;5.486;2024-03-06T09:10:08;29.17;;;14.68;;
78875;SDS011;68253;52.506;5.486;2024-03-06T09:12:38;24.77;;;11.90;;
78875;SDS011;68253;52.506;5.486;2024-03-06T09:15:04;21.83;;;11.77;;
78875;SDS011;68253;52.506;5.486;2024-03-06T09:17:32;24.83;;;12.90;;
78875;SDS011;68253;52.506;5.486;2024-03-06T09:19:59;23.42;;;12.13;;
78875;SDS011;68253;52.506;5.486;2024-03-06T09:22:25;28.42;;;15.13;;
78875;SDS011;68253;52.506;5.486;2024-03-06T09:24:51;25.48;;;14.10;;
78875;SDS011;68253;52.506;5.486;2024-03-06T09:27:17;26.95;;;14.95;;
78875;SDS011;68253;52.506;5.486;2024-03-06T09:29:43;25.60;;;14.60;;
78875;SDS011;68253;52.506;5.486;2024-03-06T09:32:09;24.08;;;13.43;;
78875;SDS011;68253;52.506;5.486;2024-03-06T09:34:38;24.90;;;13.77;;
78875;SDS011;68253;52.506;5.486;2024-03-06T09:37:04;23.00;;;12.05;;
78875;SDS011;68253;52.506;5.486;2024-03-06T09:39:30;25.48;;;14.00;;
78875;SDS011;68253;52.506;5.486;2024-03-06T09:41:56;22.05;;;11.32;;
78875;SDS011;68253;52.506;5.486;2024-03-06T09:44:25;23.92;;;12.73;;
78875;SDS011;68253;52.506;5.486;2024-03-06T09:46:51;22.63;;;12.63;;
78875;SDS011;68253;52.506;5.486;2024-03-06T09:49:19;26.10;;;13.40;;
78875;SDS011;68253;52.506;5.486;2024-03-06T09:51:46;21.92;;;11.05;;
78875;SDS011;68253;52.506;5.486;2024-03-06T09:54:15;20.38;;;11.40;;
78875;SDS011;68253;52.506;5.486;2024-03-06T09:56:42;19.38;;;10.57;;
78875;SDS011;68253;52.506;5.486;2024-03-06T09:59:09;21.80;;;11.38;;
78875;SDS011;68253;52.506;5.486;2024-03-06T10:01:40;21.17;;;10.77;;
78875;SDS011;68253;52.506;5.486;2024-03-06T10:04:19;18.90;;;10.82;;
78875;SDS011;68253;52.506;5.486;2024-03-06T10:06:45;22.52;;;11.70;;
78875;SDS011;68253;52.506;5.486;2024-03-06T10:09:12;20.55;;;11.20;;
78875;SDS011;68253;52.506;5.486;2024-03-06T10:11:41;20.67;;;10.38;;
78875;SDS011;68253;52.506;5.486;2024-03-06T10:14:08;20.48;;;11.48;;
78875;SDS011;68253;52.506;5.486;2024-03-06T10:16:36;19.42;;;10.05;;
78875;SDS011;68253;52.506;5.486;2024-03-06T10:19:15;20.80;;;11.68;;
78875;SDS011;68253;52.506;5.486;2024-03-06T10:21:47;19.67;;;11.05;;
78875;SDS011;68253;52.506;5.486;2024-03-06T10:24:18;18.50;;;9.50;;
78875;SDS011;68253;52.506;5.486;2024-03-06T10:26:54;17.88;;;9.57;;
78875;SDS011;68253;52.506;5.486;2024-03-06T10:29:21;21.25;;;11.00;;
78875;SDS011;68253;52.506;5.486;2024-03-06T10:34:25;21.08;;;11.45;;
78875;SDS011;68253;52.506;5.486;2024-03-06T10:36:53;21.38;;;11.40;;
78875;SDS011;68253;52.506;5.486;2024-03-06T10:39:21;20.10;;;11.15;;
78875;SDS011;68253;52.506;5.486;2024-03-06T10:41:55;21.65;;;11.68;;
78875;SDS011;68253;52.506;5.486;2024-03-06T10:44:23;18.55;;;9.90;;
78875;SDS011;68253;52.506;5.486;2024-03-06T10:46:55;19.50;;;11.15;;
78875;SDS011;68253;52.506;5.486;2024-03-06T10:49:30;17.25;;;8.93;;
78875;SDS011;68253;52.506;5.486;2024-03-06T10:51:59;19.17;;;11.45;;
78875;SDS011;68253;52.506;5.486;2024-03-06T10:54:32;17.95;;;9.32;;
78875;SDS011;68253;52.506;5.486;2024-03-06T10:57:00;17.27;;;9.80;;
78875;SDS011;68253;52.506;5.486;2024-03-06T10:59:29;17.13;;;8.88;;
78875;SDS011;68253;52.506;5.486;2024-03-06T11:01:56;15.35;;;8.45;;
78875;SDS011;68253;52.506;5.486;2024-03-06T11:04:26;18.52;;;9.50;;
78875;SDS011;68253;52.506;5.486;2024-03-06T11:07:00;16.40;;;8.82;;
78875;SDS011;68253;52.506;5.486;2024-03-06T11:09:28;19.10;;;9.93;;
78875;SDS011;68253;52.506;5.486;2024-03-06T11:12:00;17.73;;;10.00;;
78875;SDS011;68253;52.506;5.486;2024-03-06T11:14:30;15.85;;;9.25;;
78875;SDS011;68253;52.506;5.486;2024-03-06T11:17:01;16.35;;;8.90;;
78875;SDS011;68253;52.506;5.486;2024-03-06T11:19:29;20.27;;;11.35;;
78875;SDS011;68253;52.506;5.486;2024-03-06T11:21:56;17.33;;;8.85;;
78875;SDS011;68253;52.506;5.486;2024-03-06T11:24:24;16.42;;;8.65;;
78875;SDS011;68253;52.506;5.486;2024-03-06T11:27:01;16.00;;;8.43;;
78875;SDS011;68253;52.506;5.486;2024-03-06T11:32:37;18.38;;;9.10;;
78875;SDS011;68253;52.506;5.486;2024-03-06T11:35:04;18.67;;;8.90;;
78875;SDS011;68253;52.506;5.486;2024-03-06T11:37:33;16.38;;;9.00;;
78875;SDS011;68253;52.506;5.486;2024-03-06T11:40:00;16.63;;;8.60;;
78875;SDS011;68253;52.506;5.486;2024-03-06T11:42:34;20.35;;;9.75;;
78875;SDS011;68253;52.506;5.486;2024-03-06T11:45:17;16.27;;;9.02;;
78875;SDS011;68253;52.506;5.486;2024-03-06T11:48:00;14.98;;;8.10;;
78875;SDS011;68253;52.506;5.486;2024-03-06T11:50:27;15.48;;;8.07;;
78875;SDS011;68253;52.506;5.486;2024-03-06T11:52:57;16.88;;;8.45;;
78875;SDS011;68253;52.506;5.486;2024-03-06T11:55:23;17.35;;;9.02;;
78875;SDS011;68253;52.506;5.486;2024-03-06T11:57:53;15.10;;;7.85;;
78875;SDS011;68253;52.506;5.486;2024-03-06T12:00:23;16.73;;;7.97;;
78875;SDS011;68253;52.506;5.486;2024-03-06T12:02:52;16.27;;;8.20;;
78875;SDS011;68253;52.506;5.486;2024-03-06T12:07:50;16.73;;;7.95;;
78875;SDS011;68253;52.506;5.486;2024-03-06T12:10:17;15.15;;;7.75;;
78875;SDS011;68253;52.506;5.486;2024-03-06T12:12:43;16.85;;;8.32;;
78875;SDS011;68253;52.506;5.486;2024-03-06T12:15:10;17.13;;;9.40;;
78875;SDS011;68253;52.506;5.486;2024-03-06T12:17:44;15.73;;;8.10;;
78875;SDS011;68253;52.506;5.486;2024-03-06T12:20:14;17.88;;;9.60;;
78875;SDS011;68253;52.506;5.486;2024-03-06T12:22:44;16.13;;;8.95;;
78875;SDS011;68253;52.506;5.486;2024-03-06T12:27:46;14.98;;;7.82;;
78875;SDS011;68253;52.506;5.486;2024-03-06T12:30:17;16.85;;;8.23;;
78875;SDS011;68253;52.506;5.486;2024-03-06T12:32:44;15.85;;;8.63;;
78875;SDS011;68253;52.506;5.486;2024-03-06T12:35:10;18.05;;;8.90;;
78875;SDS011;68253;52.506;5.486;2024-03-06T12:37:36;15.70;;;8.07;;
78875;SDS011;68253;52.506;5.486;2024-03-06T12:40:02;14.55;;;7.75;;
78875;SDS011;68253;52.506;5.486;2024-03-06T12:42:38;15.85;;;8.13;;
78875;SDS011;68253;52.506;5.486;2024-03-06T12:45:05;14.45;;;7.43;;
78875;SDS011;68253;52.506;5.486;2024-03-06T12:47:32;12.63;;;6.45;;
78875;SDS011;68253;52.506;5.486;2024-03-06T12:49:58;13.48;;;7.03;;
78875;SDS011;68253;52.506;5.486;2024-03-06T12:52:25;13.18;;;6.93;;
78875;SDS011;68253;52.506;5.486;2024-03-06T12:54:51;16.83;;;8.38;;
78875;SDS011;68253;52.506;5.486;2024-03-06T12:57:17;14.60;;;6.72;;
78875;SDS011;68253;52.506;5.486;2024-03-06T12:59:43;11.57;;;5.40;;
78875;SDS011;68253;52.506;5.486;2024-03-06T13:02:09;12.18;;;6.10;;
78875;SDS011;68253;52.506;5.486;2024-03-06T13:04:35;15.50;;;6.50;;
78875;SDS011;68253;52.506;5.486;2024-03-06T13:07:02;14.32;;;6.95;;
78875;SDS011;68253;52.506;5.486;2024-03-06T13:09:28;15.23;;;7.40;;
78875;SDS011;68253;52.506;5.486;2024-03-06T13:11:54;15.13;;;8.10;;
78875;SDS011;68253;52.506;5.486;2024-03-06T13:14:20;16.15;;;7.70;;
78875;SDS011;68253;52.506;5.486;2024-03-06T13:16:46;15.40;;;7.20;;
78875;SDS011;68253;52.506;5.486;2024-03-06T13:19:12;14.57;;;6.68;;
78875;SDS011;68253;52.506;5.486;2024-03-06T13:21:39;12.52;;;6.10;;
78875;SDS011;68253;52.506;5.486;2024-03-06T13:24:05;12.93;;;6.53;;
78875;SDS011;68253;52.506;5.486;2024-03-06T13:26:31;13.48;;;6.15;;
78875;SDS011;68253;52.506;5.486;2024-03-06T13:28:57;16.17;;;8.05;;
78875;SDS011;68253;52.506;5.486;2024-03-06T13:31:25;17.38;;;8.98;;
78875;SDS011;68253;52.506;5.486;2024-03-06T13:33:51;16.30;;;7.95;;
78875;SDS011;68253;52.506;5.486;2024-03-06T13:36:19;17.52;;;8.27;;
78875;SDS011;68253;52.506;5.486;2024-03-06T13:38:45;14.38;;;6.72;;
78875;SDS011;68253;52.506;5.486;2024-03-06T13:41:12;16.02;;;8.13;;
78875;SDS011;68253;52.506;5.486;2024-03-06T13:43:38;14.85;;;7.25;;
78875;SDS011;68253;52.506;5.486;2024-03-06T13:46:04;15.35;;;7.35;;
78875;SDS011;68253;52.506;5.486;2024-03-06T13:48:30;14.23;;;6.72;;
78875;SDS011;68253;52.506;5.486;2024-03-06T13:50:56;15.35;;;7.72;;
78875;SDS011;68253;52.506;5.486;2024-03-06T13:53:22;14.40;;;6.75;;
78875;SDS011;68253;52.506;5.486;2024-03-06T13:55:51;13.93;;;6.50;;
78875;SDS011;68253;52.506;5.486;2024-03-06T13:58:17;14.93;;;7.10;;
78875;SDS011;68253;52.506;5.486;2024-03-06T14:00:44;15.18;;;6.38;;
78875;SDS011;68253;52.506;5.486;2024-03-06T14:03:10;14.25;;;6.13;;
78875;SDS011;68253;52.506;5.486;2024-03-06T14:05:39;13.63;;;6.38;;
78875;SDS011;68253;52.506;5.486;2024-03-06T14:08:05;13.60;;;7.00;;
78875;SDS011;68253;52.506;5.486;2024-03-06T14:10:31;13.95;;;6.35;;
78875;SDS011;68253;52.506;5.486;2024-03-06T14:13:02;14.63;;;7.25;;
78875;SDS011;68253;52.506;5.486;2024-03-06T14:15:32;12.90;;;6.15;;
78875;SDS011;68253;52.506;5.486;2024-03-06T14:18:01;13.55;;;6.18;;
78875;SDS011;68253;52.506;5.486;2024-03-06T14:20:27;15.00;;;6.00;;
78875;SDS011;68253;52.506;5.486;2024-03-06T14:22:53;12.75;;;6.15;;
78875;SDS011;68253;52.506;5.486;2024-03-06T14:25:22;15.07;;;6.50;;
78875;SDS011;68253;52.506;5.486;2024-03-06T14:27:49;14.20;;;6.68;;
78875;SDS011;68253;52.506;5.486;2024-03-06T14:30:15;14.27;;;7.13;;
78875;SDS011;68253;52.506;5.486;2024-03-06T14:32:41;15.60;;;7.57;;
78875;SDS011;68253;52.506;5.486;2024-03-06T14:35:09;14.43;;;7.15;;
78875;SDS011;68253;52.506;5.486;2024-03-06T14:37:35;18.27;;;9.00;;
78875;SDS011;68253;52.506;5.486;2024-03-06T14:40:04;16.67;;;7.72;;